sensor_id;sensor_type;location;lat;lon;timestamp;pressure;altitude;pressure_sealevel;temperature;humidity
16664;BME280;8445;51.270;9.434;2023-05-21T00:02:15;99545.53;;;24.59;37.99
16664;BME280;8445;51.270;9.434;2023-05-21T00:04:46;99548.69;;;24.07;39.38
16664;BME280;8445;51.270;9.434;2023-05-21T00:07:11;99545.34;;;24.05;38.72
16664;BME280;8445;51.270;9.434;2023-05-21T00:09:37;99549.50;;;23.73;39.88
16664;BME280;8445;51.270;9.434;2023-05-21T00:12:04;99552.09;;;23.88;39.39
16664;BME280;8445;51.270;9.434;2023-05-21T00:14:30;99553.09;;;24.22;38.67
16664;BME280;8445;51.270;9.434;2023-05-21T00:16:55;99540.16;;;23.75;40.21
16664;BME280;8445;51.270;9.434;2023-05-21T00:19:21;99538.28;;;24.04;39.40
16664;BME280;8445;51.270;9.434;2023-05-21T00:21:46;99540.34;;;24.02;39.21
16664;BME280;8445;51.270;9.434;2023-05-21T00:24:12;99531.00;;;24.74;37.64
16664;BME280;8445;51.270;9.434;2023-05-21T00:26:37;99534.25;;;24.49;37.82
16664;BME280;8445;51.270;9.434;2023-05-21T00:29:03;99522.03;;;24.66;37.54
16664;BME280;8445;51.270;9.434;2023-05-21T00:31:29;99517.16;;;24.28;37.94
16664;BME280;8445;51.270;9.434;2023-05-21T00:33:54;99515.44;;;24.13;38.24
16664;BME280;8445;51.270;9.434;2023-05-21T00:36:20;99516.97;;;23.88;38.95
16664;BME280;8445;51.270;9.434;2023-05-21T00:38:48;99509.91;;;23.87;39.00
16664;BME280;8445;51.270;9.434;2023-05-21T00:41:14;99509.00;;;23.73;39.51
16664;BME280;8445;51.270;9.434;2023-05-21T00:43:40;99519.22;;;23.42;40.28
16664;BME280;8445;51.270;9.434;2023-05-21T00:46:07;99501.25;;;23.63;39.75
16664;BME280;8445;51.270;9.434;2023-05-21T00:48:38;99504.72;;;23.50;40.24
16664;BME280;8445;51.270;9.434;2023-05-21T00:51:04;99514.31;;;23.59;39.78
16664;BME280;8445;51.270;9.434;2023-05-21T00:53:31;99504.75;;;23.57;40.04
16664;BME280;8445;51.270;9.434;2023-05-21T00:55:59;99508.81;;;23.39;40.80
16664;BME280;8445;51.270;9.434;2023-05-21T00:58:26;99509.25;;;23.78;39.71
16664;BME280;8445;51.270;9.434;2023-05-21T01:00:51;99508.13;;;23.65;40.20
16664;BME280;8445;51.270;9.434;2023-05-21T01:03:21;99502.97;;;23.71;39.95
16664;BME280;8445;51.270;9.434;2023-05-21T01:05:49;99498.13;;;23.59;40.57
16664;BME280;8445;51.270;9.434;2023-05-21T01:08:15;99499.22;;;23.72;39.72
16664;BME280;8445;51.270;9.434;2023-05-21T01:10:42;99492.75;;;23.66;40.18
16664;BME280;8445;51.270;9.434;2023-05-21T01:13:08;99489.25;;;24.14;38.89
16664;BME280;8445;51.270;9.434;2023-05-21T01:15:34;99489.94;;;23.88;39.25
16664;BME280;8445;51.270;9.434;2023-05-21T01:18:02;99495.75;;;23.84;39.21
16664;BME280;8445;51.270;9.434;2023-05-21T01:20:28;99490.16;;;23.44;40.49
16664;BME280;8445;51.270;9.434;2023-05-21T01:22:56;99485.94;;;23.35;40.64
16664;BME280;8445;51.270;9.434;2023-05-21T01:25:23;99494.31;;;23.18;41.35
16664;BME280;8445;51.270;9.434;2023-05-21T01:27:50;99483.38;;;23.27;41.77
16664;BME280;8445;51.270;9.434;2023-05-21T01:30:17;99481.41;;;23.42;40.48
16664;BME280;8445;51.270;9.434;2023-05-21T01:33:03;99481.84;;;23.46;42.74
16664;BME280;8445;51.270;9.434;2023-05-21T01:35:41;99474.44;;;23.54;41.92
16664;BME280;8445;51.270;9.434;2023-05-21T01:38:20;99473.22;;;23.64;40.77
16664;BME280;8445;51.270;9.434;2023-05-21T01:40:59;99475.59;;;23.80;40.22
16664;BME280;8445;51.270;9.434;2023-05-21T01:43:30;99474.16;;;23.84;39.97
16664;BME280;8445;51.270;9.434;2023-05-21T01:46:00;99471.38;;;23.71;40.43
16664;BME280;8445;51.270;9.434;2023-05-21T01:48:29;99471.09;;;23.52;41.22
16664;BME280;8445;51.270;9.434;2023-05-21T01:50:58;99476.03;;;23.91;39.88
16664;BME280;8445;51.270;9.434;2023-05-21T01:53:24;99473.03;;;24.21;38.89
16664;BME280;8445;51.270;9.434;2023-05-21T01:55:50;99483.19;;;24.05;39.16
16664;BME280;8445;51.270;9.434;2023-05-21T01:58:15;99478.75;;;23.97;39.67
16664;BME280;8445;51.270;9.434;2023-05-21T02:00:41;99473.75;;;23.88;39.47
16664;BME280;8445;51.270;9.434;2023-05-21T02:03:07;99460.81;;;23.34;41.21
16664;BME280;8445;51.270;9.434;2023-05-21T02:05:33;99475.47;;;23.53;40.94
16664;BME280;8445;51.270;9.434;2023-05-21T02:07:59;99473.59;;;23.61;40.58
16664;BME280;8445;51.270;9.434;2023-05-21T02:10:25;99471.50;;;23.49;40.71
16664;BME280;8445;51.270;9.434;2023-05-21T02:12:51;99469.25;;;23.60;40.48
16664;BME280;8445;51.270;9.434;2023-05-21T02:15:16;99465.22;;;23.42;40.83
16664;BME280;8445;51.270;9.434;2023-05-21T02:17:45;99461.16;;;23.24;41.47
16664;BME280;8445;51.270;9.434;2023-05-21T02:20:11;99463.41;;;23.56;40.38
16664;BME280;8445;51.270;9.434;2023-05-21T02:22:40;99461.44;;;23.36;40.99
16664;BME280;8445;51.270;9.434;2023-05-21T02:25:07;99463.69;;;23.68;40.40
16664;BME280;8445;51.270;9.434;2023-05-21T02:27:34;99469.56;;;23.85;39.69
16664;BME280;8445;51.270;9.434;2023-05-21T02:30:02;99478.06;;;23.75;39.65
16664;BME280;8445;51.270;9.434;2023-05-21T02:32:29;99466.13;;;23.56;40.13
16664;BME280;8445;51.270;9.434;2023-05-21T02:34:56;99461.75;;;23.55;39.99
16664;BME280;8445;51.270;9.434;2023-05-21T02:37:22;99463.06;;;23.31;40.46
16664;BME280;8445;51.270;9.434;2023-05-21T02:39:50;99462.28;;;23.37;40.14
16664;BME280;8445;51.270;9.434;2023-05-21T02:42:17;99455.00;;;23.37;40.28
16664;BME280;8445;51.270;9.434;2023-05-21T02:44:42;99458.41;;;23.18;40.53
16664;BME280;8445;51.270;9.434;2023-05-21T02:47:07;99458.16;;;23.41;40.32
16664;BME280;8445;51.270;9.434;2023-05-21T02:49:34;99461.09;;;23.46;39.50
16664;BME280;8445;51.270;9.434;2023-05-21T02:52:00;99456.41;;;23.27;40.15
16664;BME280;8445;51.270;9.434;2023-05-21T02:54:25;99463.69;;;23.68;39.10
16664;BME280;8445;51.270;9.434;2023-05-21T02:56:51;99460.06;;;23.19;40.51
16664;BME280;8445;51.270;9.434;2023-05-21T02:59:18;99461.81;;;23.27;40.11
16664;BME280;8445;51.270;9.434;2023-05-21T03:01:46;99459.47;;;23.52;39.79
16664;BME280;8445;51.270;9.434;2023-05-21T03:04:14;99459.84;;;23.20;40.59
16664;BME280;8445;51.270;9.434;2023-05-21T03:06:41;99453.25;;;23.51;39.75
16664;BME280;8445;51.270;9.434;2023-05-21T03:09:07;99445.22;;;23.30;40.40
16664;BME280;8445;51.270;9.434;2023-05-21T03:11:33;99458.97;;;23.13;41.07
16664;BME280;8445;51.270;9.434;2023-05-21T03:13:58;99461.88;;;23.40;40.35
16664;BME280;8445;51.270;9.434;2023-05-21T03:16:24;99449.72;;;23.22;40.95
16664;BME280;8445;51.270;9.434;2023-05-21T03:18:49;99453.59;;;23.13;41.81
16664;BME280;8445;51.270;9.434;2023-05-21T03:21:17;99450.59;;;23.23;41.76
16664;BME280;8445;51.270;9.434;2023-05-21T03:23:47;99452.16;;;23.17;41.63
16664;BME280;8445;51.270;9.434;2023-05-21T03:26:13;99451.59;;;23.64;40.36
16664;BME280;8445;51.270;9.434;2023-05-21T03:28:38;99455.63;;;23.81;40.00
16664;BME280;8445;51.270;9.434;2023-05-21T03:31:04;99457.38;;;23.54;40.85
16664;BME280;8445;51.270;9.434;2023-05-21T03:33:43;99453.94;;;23.32;41.20
16664;BME280;8445;51.270;9.434;2023-05-21T03:36:22;99452.41;;;23.58;40.88
16664;BME280;8445;51.270;9.434;2023-05-21T03:38:48;99454.53;;;23.69;40.55
16664;BME280;8445;51.270;9.434;2023-05-21T03:41:16;99457.25;;;23.69;40.80
16664;BME280;8445;51.270;9.434;2023-05-21T03:43:46;99456.25;;;23.77;40.46
16664;BME280;8445;51.270;9.434;2023-05-21T03:46:11;99459.03;;;23.48;41.18
16664;BME280;8445;51.270;9.434;2023-05-21T03:48:56;99462.41;;;23.64;41.11
16664;BME280;8445;51.270;9.434;2023-05-21T03:51:26;99461.88;;;23.40;41.99
16664;BME280;8445;51.270;9.434;2023-05-21T03:53:52;99460.41;;;23.73;41.06
16664;BME280;8445;51.270;9.434;2023-05-21T03:56:17;99462.53;;;23.42;41.99
16664;BME280;8445;51.270;9.434;2023-05-21T03:58:43;99455.75;;;23.60;41.40
16664;BME280;8445;51.270;9.434;2023-05-21T04:01:08;99463.09;;;23.73;41.12
16664;BME280;8445;51.270;9.434;2023-05-21T04:03:36;99457.00;;;23.57;41.87
16664;BME280;8445;51.270;9.434;2023-05-21T04:06:02;99466.84;;;23.78;41.51
16664;BME280;8445;51.270;9.434;2023-05-21T04:08:28;99462.81;;;23.61;42.20
16664;BME280;8445;51.270;9.434;2023-05-21T04:10:54;99454.34;;;24.12;41.17
16664;BME280;8445;51.270;9.434;2023-05-21T04:13:19;99470.41;;;23.79;41.99
16664;BME280;8445;51.270;9.434;2023-05-21T04:15:46;99471.69;;;23.90;41.69
16664;BME280;8445;51.270;9.434;2023-05-21T04:18:13;99469.69;;;24.05;41.57
16664;BME280;8445;51.270;9.434;2023-05-21T04:20:42;99469.78;;;24.46;40.92
16664;BME280;8445;51.270;9.434;2023-05-21T04:23:08;99481.19;;;24.27;41.05
16664;BME280;8445;51.270;9.434;2023-05-21T04:25:33;99474.78;;;23.87;42.28
16664;BME280;8445;51.270;9.434;2023-05-21T04:27:59;99470.00;;;24.51;40.82
16664;BME280;8445;51.270;9.434;2023-05-21T04:30:24;99470.09;;;24.09;42.15
16664;BME280;8445;51.270;9.434;2023-05-21T04:32:50;99472.69;;;24.57;40.82
16664;BME280;8445;51.270;9.434;2023-05-21T04:35:19;99463.94;;;24.35;41.46
16664;BME280;8445;51.270;9.434;2023-05-21T04:37:45;99463.31;;;24.26;41.63
16664;BME280;8445;51.270;9.434;2023-05-21T04:40:14;99467.84;;;24.12;42.55
16664;BME280;8445;51.270;9.434;2023-05-21T04:42:45;99461.84;;;24.31;42.01
16664;BME280;8445;51.270;9.434;2023-05-21T04:45:13;99464.44;;;24.73;41.00
16664;BME280;8445;51.270;9.434;2023-05-21T04:47:42;99468.78;;;24.87;40.77
16664;BME280;8445;51.270;9.434;2023-05-21T04:50:08;99474.78;;;24.49;41.40
16664;BME280;8445;51.270;9.434;2023-05-21T04:52:38;99467.75;;;24.88;40.47
16664;BME280;8445;51.270;9.434;2023-05-21T04:55:06;99462.97;;;24.90;40.41
16664;BME280;8445;51.270;9.434;2023-05-21T04:57:31;99463.97;;;24.62;41.27
16664;BME280;8445;51.270;9.434;2023-05-21T04:59:58;99461.50;;;24.94;41.07
16664;BME280;8445;51.270;9.434;2023-05-21T05:02:25;99459.56;;;25.35;40.28
16664;BME280;8445;51.270;9.434;2023-05-21T05:04:50;99452.34;;;24.95;40.82
16664;BME280;8445;51.270;9.434;2023-05-21T05:07:16;99455.25;;;24.60;41.66
16664;BME280;8445;51.270;9.434;2023-05-21T05:09:42;99457.53;;;25.04;40.96
16664;BME280;8445;51.270;9.434;2023-05-21T05:12:07;99454.78;;;25.51;40.22
16664;BME280;8445;51.270;9.434;2023-05-21T05:14:33;99448.81;;;24.88;41.70
16664;BME280;8445;51.270;9.434;2023-05-21T05:16:58;99446.72;;;24.90;41.70
16664;BME280;8445;51.270;9.434;2023-05-21T05:19:26;99449.22;;;24.98;41.89
16664;BME280;8445;51.270;9.434;2023-05-21T05:21:51;99453.13;;;25.50;40.95
16664;BME280;8445;51.270;9.434;2023-05-21T05:24:18;99444.34;;;25.41;40.98
16664;BME280;8445;51.270;9.434;2023-05-21T05:26:46;99450.66;;;25.08;42.18
16664;BME280;8445;51.270;9.434;2023-05-21T05:29:12;99451.84;;;25.52;41.23
16664;BME280;8445;51.270;9.434;2023-05-21T05:31:38;99445.84;;;25.30;41.64
16664;BME280;8445;51.270;9.434;2023-05-21T05:34:03;99443.53;;;25.40;41.64
16664;BME280;8445;51.270;9.434;2023-05-21T05:36:28;99453.19;;;25.02;42.47
16664;BME280;8445;51.270;9.434;2023-05-21T05:38:54;99454.97;;;25.42;42.29
16664;BME280;8445;51.270;9.434;2023-05-21T05:41:23;99452.66;;;25.59;41.97
16664;BME280;8445;51.270;9.434;2023-05-21T05:43:49;99461.19;;;26.15;41.26
16664;BME280;8445;51.270;9.434;2023-05-21T05:46:15;99466.69;;;26.66;40.58
16664;BME280;8445;51.270;9.434;2023-05-21T05:48:41;99462.50;;;25.99;41.90
16664;BME280;8445;51.270;9.434;2023-05-21T05:51:07;99457.75;;;26.91;40.59
16664;BME280;8445;51.270;9.434;2023-05-21T05:53:33;99466.84;;;26.14;41.85
16664;BME280;8445;51.270;9.434;2023-05-21T05:56:02;99464.75;;;26.16;41.27
16664;BME280;8445;51.270;9.434;2023-05-21T05:58:29;99464.31;;;26.51;41.13
16664;BME280;8445;51.270;9.434;2023-05-21T06:01:02;99466.50;;;26.36;41.38
16664;BME280;8445;51.270;9.434;2023-05-21T06:03:28;99462.53;;;26.38;41.22
16664;BME280;8445;51.270;9.434;2023-05-21T06:05:53;99468.78;;;26.64;41.25
16664;BME280;8445;51.270;9.434;2023-05-21T06:08:19;99467.09;;;26.70;41.04
16664;BME280;8445;51.270;9.434;2023-05-21T06:10:44;99464.13;;;26.46;41.29
16664;BME280;8445;51.270;9.434;2023-05-21T06:13:10;99471.75;;;26.62;41.42
16664;BME280;8445;51.270;9.434;2023-05-21T06:15:35;99464.44;;;26.88;40.85
16664;BME280;8445;51.270;9.434;2023-05-21T06:18:01;99467.41;;;27.31;40.45
16664;BME280;8445;51.270;9.434;2023-05-21T06:20:26;99473.63;;;27.13;40.58
16664;BME280;8445;51.270;9.434;2023-05-21T06:22:54;99457.91;;;27.77;40.10
16664;BME280;8445;51.270;9.434;2023-05-21T06:25:19;99462.25;;;27.66;39.83
16664;BME280;8445;51.270;9.434;2023-05-21T06:27:45;99464.91;;;27.85;39.88
16664;BME280;8445;51.270;9.434;2023-05-21T06:30:17;99460.72;;;28.20;39.17
16664;BME280;8445;51.270;9.434;2023-05-21T06:32:42;99458.56;;;28.52;39.02
16664;BME280;8445;51.270;9.434;2023-05-21T06:35:08;99463.41;;;27.89;39.98
16664;BME280;8445;51.270;9.434;2023-05-21T06:37:37;99464.97;;;27.97;39.77
16664;BME280;8445;51.270;9.434;2023-05-21T06:40:05;99466.28;;;27.94;40.11
16664;BME280;8445;51.270;9.434;2023-05-21T06:42:32;99456.72;;;27.55;40.76
16664;BME280;8445;51.270;9.434;2023-05-21T06:45:16;99463.00;;;28.35;39.80
16664;BME280;8445;51.270;9.434;2023-05-21T06:47:43;99457.69;;;28.09;40.37
16664;BME280;8445;51.270;9.434;2023-05-21T06:50:08;99458.41;;;28.35;39.93
16664;BME280;8445;51.270;9.434;2023-05-21T06:52:36;99467.44;;;28.48;40.18
16664;BME280;8445;51.270;9.434;2023-05-21T06:55:02;99458.78;;;28.93;39.19
16664;BME280;8445;51.270;9.434;2023-05-21T06:57:39;99456.16;;;29.34;39.14
16664;BME280;8445;51.270;9.434;2023-05-21T07:00:08;99467.63;;;28.89;39.60
16664;BME280;8445;51.270;9.434;2023-05-21T07:02:34;99462.28;;;28.70;39.77
16664;BME280;8445;51.270;9.434;2023-05-21T07:05:01;99466.59;;;29.02;39.21
16664;BME280;8445;51.270;9.434;2023-05-21T07:07:26;99467.03;;;28.87;39.48
16664;BME280;8445;51.270;9.434;2023-05-21T07:09:51;99470.94;;;28.79;39.66
16664;BME280;8445;51.270;9.434;2023-05-21T07:12:17;99467.88;;;28.99;39.67
16664;BME280;8445;51.270;9.434;2023-05-21T07:14:46;99469.56;;;29.12;39.38
16664;BME280;8445;51.270;9.434;2023-05-21T07:17:11;99458.03;;;29.46;39.12
16664;BME280;8445;51.270;9.434;2023-05-21T07:19:37;99467.44;;;30.02;38.60
16664;BME280;8445;51.270;9.434;2023-05-21T07:22:04;99460.56;;;30.46;38.18
16664;BME280;8445;51.270;9.434;2023-05-21T07:24:30;99448.75;;;30.11;38.25
16664;BME280;8445;51.270;9.434;2023-05-21T07:26:56;99462.72;;;29.86;38.30
16664;BME280;8445;51.270;9.434;2023-05-21T07:29:21;99441.06;;;29.67;38.61
16664;BME280;8445;51.270;9.434;2023-05-21T07:31:47;99447.00;;;30.05;38.51
16664;BME280;8445;51.270;9.434;2023-05-21T07:34:12;99447.16;;;30.44;37.94
16664;BME280;8445;51.270;9.434;2023-05-21T07:36:39;99439.47;;;29.83;38.41
16664;BME280;8445;51.270;9.434;2023-05-21T07:39:05;99441.56;;;29.93;38.19
16664;BME280;8445;51.270;9.434;2023-05-21T07:41:31;99438.53;;;30.36;38.16
16664;BME280;8445;51.270;9.434;2023-05-21T07:43:59;99447.63;;;30.24;38.29
16664;BME280;8445;51.270;9.434;2023-05-21T07:46:26;99458.44;;;30.82;37.89
16664;BME280;8445;51.270;9.434;2023-05-21T07:48:55;99453.59;;;31.24;37.66
16664;BME280;8445;51.270;9.434;2023-05-21T07:51:21;99453.84;;;30.54;37.97
16664;BME280;8445;51.270;9.434;2023-05-21T07:53:47;99443.94;;;30.01;38.23
16664;BME280;8445;51.270;9.434;2023-05-21T07:56:14;99439.78;;;30.28;37.83
16664;BME280;8445;51.270;9.434;2023-05-21T07:58:41;99443.38;;;29.99;38.52
16664;BME280;8445;51.270;9.434;2023-05-21T08:01:11;99446.34;;;30.44;37.38
16664;BME280;8445;51.270;9.434;2023-05-21T08:03:36;99443.91;;;30.30;37.77
16664;BME280;8445;51.270;9.434;2023-05-21T08:06:02;99441.22;;;30.65;37.43
16664;BME280;8445;51.270;9.434;2023-05-21T08:08:28;99439.81;;;30.45;37.33
16664;BME280;8445;51.270;9.434;2023-05-21T08:10:55;99445.69;;;30.71;37.04
16664;BME280;8445;51.270;9.434;2023-05-21T08:13:23;99443.72;;;30.83;36.96
16664;BME280;8445;51.270;9.434;2023-05-21T08:15:49;99439.31;;;30.99;36.79
16664;BME280;8445;51.270;9.434;2023-05-21T08:18:15;99447.00;;;30.51;36.87
16664;BME280;8445;51.270;9.434;2023-05-21T08:20:42;99451.22;;;30.13;37.14
16664;BME280;8445;51.270;9.434;2023-05-21T08:23:08;99447.44;;;30.14;37.51
16664;BME280;8445;51.270;9.434;2023-05-21T08:25:39;99448.69;;;30.23;36.99
16664;BME280;8445;51.270;9.434;2023-05-21T08:28:05;99450.28;;;31.22;36.25
16664;BME280;8445;51.270;9.434;2023-05-21T08:30:31;99447.84;;;31.03;36.47
16664;BME280;8445;51.270;9.434;2023-05-21T08:32:57;99436.41;;;31.06;36.52
16664;BME280;8445;51.270;9.434;2023-05-21T08:35:24;99442.88;;;31.39;36.28
16664;BME280;8445;51.270;9.434;2023-05-21T08:37:55;99442.22;;;30.93;36.44
16664;BME280;8445;51.270;9.434;2023-05-21T08:40:48;99438.81;;;31.19;36.46
16664;BME280;8445;51.270;9.434;2023-05-21T08:43:16;99444.16;;;31.54;35.76
16664;BME280;8445;51.270;9.434;2023-05-21T08:45:53;99450.22;;;31.78;34.91
16664;BME280;8445;51.270;9.434;2023-05-21T08:48:22;99447.28;;;31.62;35.92
16664;BME280;8445;51.270;9.434;2023-05-21T08:50:50;99445.53;;;31.73;35.90
16664;BME280;8445;51.270;9.434;2023-05-21T08:53:22;99454.97;;;31.65;35.94
16664;BME280;8445;51.270;9.434;2023-05-21T08:55:50;99455.03;;;31.48;35.97
16664;BME280;8445;51.270;9.434;2023-05-21T08:58:17;99450.00;;;31.62;35.78
16664;BME280;8445;51.270;9.434;2023-05-21T09:00:43;99441.38;;;31.48;36.18
16664;BME280;8445;51.270;9.434;2023-05-21T09:03:09;99447.03;;;31.64;35.77
16664;BME280;8445;51.270;9.434;2023-05-21T09:05:39;99446.63;;;31.33;35.91
16664;BME280;8445;51.270;9.434;2023-05-21T09:08:06;99438.72;;;31.54;35.62
16664;BME280;8445;51.270;9.434;2023-05-21T09:11:12;99439.72;;;31.08;36.07
16664;BME280;8445;51.270;9.434;2023-05-21T09:13:45;99435.91;;;31.09;36.32
16664;BME280;8445;51.270;9.434;2023-05-21T09:16:18;99429.06;;;31.46;35.51
16664;BME280;8445;51.270;9.434;2023-05-21T09:18:44;99429.16;;;31.56;35.37
16664;BME280;8445;51.270;9.434;2023-05-21T09:21:26;99426.81;;;31.20;35.46
16664;BME280;8445;51.270;9.434;2023-05-21T09:24:02;99429.19;;;31.78;35.42
16664;BME280;8445;51.270;9.434;2023-05-21T09:26:28;99421.34;;;31.65;35.51
16664;BME280;8445;51.270;9.434;2023-05-21T09:28:58;99421.13;;;31.72;35.68
16664;BME280;8445;51.270;9.434;2023-05-21T09:31:24;99432.75;;;32.06;35.45
16664;BME280;8445;51.270;9.434;2023-05-21T09:33:51;99421.50;;;31.75;35.74
16664;BME280;8445;51.270;9.434;2023-05-21T09:36:18;99428.72;;;31.87;35.47
16664;BME280;8445;51.270;9.434;2023-05-21T09:38:45;99430.47;;;31.98;35.26
16664;BME280;8445;51.270;9.434;2023-05-21T09:41:10;99422.81;;;32.55;34.81
16664;BME280;8445;51.270;9.434;2023-05-21T09:43:37;99428.31;;;32.93;34.45
16664;BME280;8445;51.270;9.434;2023-05-21T09:46:03;99427.06;;;33.11;34.42
16664;BME280;8445;51.270;9.434;2023-05-21T09:48:36;99423.47;;;32.67;34.37
16664;BME280;8445;51.270;9.434;2023-05-21T09:51:21;99420.91;;;32.88;33.53
16664;BME280;8445;51.270;9.434;2023-05-21T09:53:55;99422.81;;;32.55;35.10
16664;BME280;8445;51.270;9.434;2023-05-21T09:56:28;99423.16;;;32.96;34.98
16664;BME280;8445;51.270;9.434;2023-05-21T09:58:56;99426.13;;;32.95;35.06
16664;BME280;8445;51.270;9.434;2023-05-21T10:01:25;99423.56;;;33.21;33.93
16664;BME280;8445;51.270;9.434;2023-05-21T10:04:06;99423.94;;;33.40;33.63
16664;BME280;8445;51.270;9.434;2023-05-21T10:06:36;99420.69;;;33.48;33.50
16664;BME280;8445;51.270;9.434;2023-05-21T10:09:09;99416.41;;;33.89;33.82
16664;BME280;8445;51.270;9.434;2023-05-21T10:11:35;99416.69;;;33.82;34.32
16664;BME280;8445;51.270;9.434;2023-05-21T10:14:06;99413.75;;;34.40;33.58
16664;BME280;8445;51.270;9.434;2023-05-21T10:16:33;99411.00;;;34.35;34.32
16664;BME280;8445;51.270;9.434;2023-05-21T10:19:00;99411.59;;;34.63;33.72
16664;BME280;8445;51.270;9.434;2023-05-21T10:21:25;99404.41;;;34.78;33.55
16664;BME280;8445;51.270;9.434;2023-05-21T10:23:52;99406.06;;;34.99;33.24
16664;BME280;8445;51.270;9.434;2023-05-21T10:26:20;99400.47;;;35.30;33.19
16664;BME280;8445;51.270;9.434;2023-05-21T10:28:50;99400.13;;;35.92;32.44
16664;BME280;8445;51.270;9.434;2023-05-21T10:31:17;99396.88;;;36.30;32.61
16664;BME280;8445;51.270;9.434;2023-05-21T10:33:42;99392.25;;;35.81;32.72
16664;BME280;8445;51.270;9.434;2023-05-21T10:36:10;99399.38;;;35.26;33.66
16664;BME280;8445;51.270;9.434;2023-05-21T10:38:40;99395.25;;;35.24;32.68
16664;BME280;8445;51.270;9.434;2023-05-21T10:41:13;99405.25;;;34.99;32.17
16664;BME280;8445;51.270;9.434;2023-05-21T10:44:21;99394.84;;;35.61;29.82
16664;BME280;8445;51.270;9.434;2023-05-21T10:47:16;99398.84;;;35.80;30.92
16664;BME280;8445;51.270;9.434;2023-05-21T10:55:46;99383.88;;;35.51;31.74
16664;BME280;8445;51.270;9.434;2023-05-21T10:58:37;99384.91;;;35.66;32.72
16664;BME280;8445;51.270;9.434;2023-05-21T11:01:05;99379.19;;;35.97;32.82
16664;BME280;8445;51.270;9.434;2023-05-21T11:03:37;99387.88;;;36.19;31.93
16664;BME280;8445;51.270;9.434;2023-05-21T11:06:05;99379.66;;;36.49;32.49
16664;BME280;8445;51.270;9.434;2023-05-21T11:08:32;99379.66;;;36.78;31.59
16664;BME280;8445;51.270;9.434;2023-05-21T11:11:03;99375.19;;;36.83;31.93
16664;BME280;8445;51.270;9.434;2023-05-21T11:13:44;99374.47;;;37.01;31.32
16664;BME280;8445;51.270;9.434;2023-05-21T11:16:18;99372.63;;;35.92;32.43
16664;BME280;8445;51.270;9.434;2023-05-21T11:21:17;99370.91;;;37.20;31.36
16664;BME280;8445;51.270;9.434;2023-05-21T11:23:52;99369.28;;;37.81;28.85
16664;BME280;8445;51.270;9.434;2023-05-21T11:26:22;99368.78;;;38.32;30.24
16664;BME280;8445;51.270;9.434;2023-05-21T11:31:29;99373.25;;;37.94;30.30
16664;BME280;8445;51.270;9.434;2023-05-21T11:39:53;99360.41;;;38.04;30.76
16664;BME280;8445;51.270;9.434;2023-05-21T11:42:38;99352.88;;;38.43;27.62
16664;BME280;8445;51.270;9.434;2023-05-21T11:45:09;99351.59;;;38.35;30.80
16664;BME280;8445;51.270;9.434;2023-05-21T11:47:34;99348.50;;;38.55;30.52
16664;BME280;8445;51.270;9.434;2023-05-21T11:50:02;99348.72;;;38.73;29.90
16664;BME280;8445;51.270;9.434;2023-05-21T11:52:29;99341.56;;;38.72;29.76
16664;BME280;8445;51.270;9.434;2023-05-21T11:54:55;99338.88;;;38.53;29.83
16664;BME280;8445;51.270;9.434;2023-05-21T11:57:24;99341.78;;;38.90;29.42
16664;BME280;8445;51.270;9.434;2023-05-21T11:59:50;99347.91;;;39.14;29.15
16664;BME280;8445;51.270;9.434;2023-05-21T12:02:20;99349.34;;;38.56;29.38
16664;BME280;8445;51.270;9.434;2023-05-21T12:04:48;99350.78;;;38.81;29.42
16664;BME280;8445;51.270;9.434;2023-05-21T12:07:16;99338.88;;;38.53;29.59
16664;BME280;8445;51.270;9.434;2023-05-21T12:09:46;99344.00;;;38.60;29.34
16664;BME280;8445;51.270;9.434;2023-05-21T12:12:14;99340.13;;;37.94;29.34
16664;BME280;8445;51.270;9.434;2023-05-21T12:14:47;99342.94;;;37.89;28.88
16664;BME280;8445;51.270;9.434;2023-05-21T12:17:17;99343.72;;;38.28;28.66
16664;BME280;8445;51.270;9.434;2023-05-21T12:19:44;99339.88;;;38.57;28.73
16664;BME280;8445;51.270;9.434;2023-05-21T12:22:10;99340.69;;;37.34;29.18
16664;BME280;8445;51.270;9.434;2023-05-21T12:24:36;99342.03;;;37.36;28.74
16664;BME280;8445;51.270;9.434;2023-05-21T12:27:04;99334.22;;;38.01;28.54
16664;BME280;8445;51.270;9.434;2023-05-21T12:29:35;99343.00;;;38.03;28.45
16664;BME280;8445;51.270;9.434;2023-05-21T12:32:03;99342.38;;;37.92;28.32
16664;BME280;8445;51.270;9.434;2023-05-21T12:34:40;99340.13;;;38.28;26.58
16664;BME280;8445;51.270;9.434;2023-05-21T12:37:19;99333.44;;;38.15;26.49
16664;BME280;8445;51.270;9.434;2023-05-21T12:39:47;99341.84;;;37.08;28.61
16664;BME280;8445;51.270;9.434;2023-05-21T12:42:13;99333.19;;;36.96;28.65
16664;BME280;8445;51.270;9.434;2023-05-21T12:44:42;99337.53;;;36.14;28.32
16664;BME280;8445;51.270;9.434;2023-05-21T12:47:10;99333.84;;;36.83;28.98
16664;BME280;8445;51.270;9.434;2023-05-21T12:49:42;99339.16;;;37.47;28.45
16664;BME280;8445;51.270;9.434;2023-05-21T12:52:17;99328.28;;;37.56;28.19
16664;BME280;8445;51.270;9.434;2023-05-21T12:54:45;99326.19;;;37.66;28.06
16664;BME280;8445;51.270;9.434;2023-05-21T12:57:24;99330.50;;;37.92;27.64
16664;BME280;8445;51.270;9.434;2023-05-21T12:59:55;99322.25;;;37.29;28.56
16664;BME280;8445;51.270;9.434;2023-05-21T13:02:32;99328.25;;;37.75;28.03
16664;BME280;8445;51.270;9.434;2023-05-21T13:05:05;99321.66;;;38.09;26.46
16664;BME280;8445;51.270;9.434;2023-05-21T13:07:34;99316.47;;;37.69;27.85
16664;BME280;8445;51.270;9.434;2023-05-21T13:10:01;99318.91;;;37.32;28.20
16664;BME280;8445;51.270;9.434;2023-05-21T13:12:29;99311.25;;;37.48;28.19
16664;BME280;8445;51.270;9.434;2023-05-21T13:14:57;99313.56;;;36.73;28.71
16664;BME280;8445;51.270;9.434;2023-05-21T13:17:24;99317.72;;;36.71;28.59
16664;BME280;8445;51.270;9.434;2023-05-21T13:22:44;99309.53;;;37.33;28.04
16664;BME280;8445;51.270;9.434;2023-05-21T13:25:12;99303.63;;;37.97;27.84
16664;BME280;8445;51.270;9.434;2023-05-21T13:27:40;99300.31;;;38.29;27.82
16664;BME280;8445;51.270;9.434;2023-05-21T13:30:06;99299.94;;;38.35;27.62
16664;BME280;8445;51.270;9.434;2023-05-21T13:32:32;99297.94;;;38.69;27.47
16664;BME280;8445;51.270;9.434;2023-05-21T13:34:58;99297.63;;;39.12;27.03
16664;BME280;8445;51.270;9.434;2023-05-21T13:37:23;99294.47;;;39.05;27.27